sensor_id;sensor_type;location;lat;lon;timestamp;P1;durP1;ratioP1;P2;durP2;ratioP2
67804;SDS011;54603;45.638;11.714;2023-05-08T17:21:33;7.10;;;4.10;;
67804;SDS011;54603;45.638;11.714;2023-05-08T17:24:33;7.60;;;4.00;;
67804;SDS011;54603;45.638;11.714;2023-05-08T17:27:26;4.90;;;4.40;;
67804;SDS011;54603;45.638;11.714;2023-05-08T17:29:58;3.70;;;3.40;;
67804;SDS011;54603;45.638;11.714;2023-05-08T17:32:25;4.30;;;3.90;;
67804;SDS011;54603;45.638;11.714;2023-05-08T17:34:54;4.30;;;3.90;;
67804;SDS011;54603;45.638;11.714;2023-05-08T17:37:23;6.40;;;3.60;;
67804;SDS011;54603;45.638;11.714;2023-05-08T17:39:49;5.90;;;3.70;;
67804;SDS011;54603;45.638;11.714;2023-05-08T17:42:16;4.90;;;3.50;;
67804;SDS011;54603;45.638;11.714;2023-05-08T17:44:48;8.90;;;3.30;;
67804;SDS011;54603;45.638;11.714;2023-05-08T17:47:15;4.40;;;3.80;;
67804;SDS011;54603;45.638;11.714;2023-05-08T17:49:40;7.10;;;3.70;;
67804;SDS011;54603;45.638;11.714;2023-05-08T17:52:06;5.20;;;3.70;;
67804;SDS011;54603;45.638;11.714;2023-05-08T17:54:32;8.60;;;3.80;;
67804;SDS011;54603;45.638;11.714;2023-05-08T17:56:58;5.20;;;4.30;;
67804;SDS011;54603;45.638;11.714;2023-05-08T17:59:25;6.30;;;3.40;;
67804;SDS011;54603;45.638;11.714;2023-05-08T18:01:51;6.00;;;3.80;;
67804;SDS011;54603;45.638;11.714;2023-05-08T18:04:16;7.10;;;4.00;;
67804;SDS011;54603;45.638;11.714;2023-05-08T18:07:02;6.10;;;3.50;;
67804;SDS011;54603;45.638;11.714;2023-05-08T18:09:28;3.40;;;3.10;;
67804;SDS011;54603;45.638;11.714;2023-05-08T18:11:57;5.30;;;3.20;;
67804;SDS011;54603;45.638;11.714;2023-05-08T18:14:32;5.30;;;3.60;;
67804;SDS011;54603;45.638;11.714;2023-05-08T18:17:02;7.30;;;3.90;;
67804;SDS011;54603;45.638;11.714;2023-05-08T18:19:31;4.60;;;3.50;;
67804;SDS011;54603;45.638;11.714;2023-05-08T18:22:08;4.10;;;3.60;;
67804;SDS011;54603;45.638;11.714;2023-05-08T18:25:01;5.40;;;3.40;;
67804;SDS011;54603;45.638;11.714;2023-05-08T18:27:27;5.70;;;4.00;;
67804;SDS011;54603;45.638;11.714;2023-05-08T18:29:54;4.10;;;3.70;;
67804;SDS011;54603;45.638;11.714;2023-05-08T18:32:43;6.20;;;3.70;;
67804;SDS011;54603;45.638;11.714;2023-05-08T18:35:11;4.60;;;3.40;;
67804;SDS011;54603;45.638;11.714;2023-05-08T18:37:38;3.70;;;3.40;;
67804;SDS011;54603;45.638;11.714;2023-05-08T18:40:52;4.40;;;3.30;;
67804;SDS011;54603;45.638;11.714;2023-05-08T18:43:43;4.30;;;3.60;;
67804;SDS011;54603;45.638;11.714;2023-05-08T18:46:27;5.90;;;3.40;;
67804;SDS011;54603;45.638;11.714;2023-05-08T18:49:13;4.40;;;4.00;;
67804;SDS011;54603;45.638;11.714;2023-05-08T18:51:51;5.80;;;3.80;;
67804;SDS011;54603;45.638;11.714;2023-05-08T18:54:26;4.60;;;3.50;;
67804;SDS011;54603;45.638;11.714;2023-05-08T18:56:54;4.50;;;3.10;;
67804;SDS011;54603;45.638;11.714;2023-05-08T18:59:19;4.90;;;4.00;;
67804;SDS011;54603;45.638;11.714;2023-05-08T19:01:46;3.50;;;3.20;;
67804;SDS011;54603;45.638;11.714;2023-05-08T19:04:14;4.20;;;3.80;;
67804;SDS011;54603;45.638;11.714;2023-05-08T19:06:40;4.60;;;3.80;;
67804;SDS011;54603;45.638;11.714;2023-05-08T19:09:06;7.00;;;4.00;;
67804;SDS011;54603;45.638;11.714;2023-05-08T19:11:34;6.50;;;4.00;;
67804;SDS011;54603;45.638;11.714;2023-05-08T19:14:01;7.10;;;4.10;;
67804;SDS011;54603;45.638;11.714;2023-05-08T19:16:33;5.80;;;4.30;;
67804;SDS011;54603;45.638;11.714;2023-05-08T19:19:00;6.10;;;4.10;;
67804;SDS011;54603;45.638;11.714;2023-05-08T19:21:29;7.10;;;4.10;;
67804;SDS011;54603;45.638;11.714;2023-05-08T19:23:59;5.10;;;4.40;;
67804;SDS011;54603;45.638;11.714;2023-05-08T19:26:30;8.90;;;4.20;;
67804;SDS011;54603;45.638;11.714;2023-05-08T19:29:05;5.50;;;4.00;;
67804;SDS011;54603;45.638;11.714;2023-05-08T19:31:36;5.90;;;3.80;;
67804;SDS011;54603;45.638;11.714;2023-05-08T19:34:02;9.80;;;4.30;;
67804;SDS011;54603;45.638;11.714;2023-05-08T19:36:48;4.20;;;3.70;;
67804;SDS011;54603;45.638;11.714;2023-05-08T19:39:14;4.80;;;3.70;;
67804;SDS011;54603;45.638;11.714;2023-05-08T19:41:40;4.80;;;3.90;;
67804;SDS011;54603;45.638;11.714;2023-05-08T19:44:08;4.50;;;3.80;;
67804;SDS011;54603;45.638;11.714;2023-05-08T19:46:35;4.80;;;3.40;;
67804;SDS011;54603;45.638;11.714;2023-05-08T19:49:01;4.00;;;3.20;;
67804;SDS011;54603;45.638;11.714;2023-05-08T19:51:27;5.00;;;3.50;;
67804;SDS011;54603;45.638;11.714;2023-05-08T19:53:53;5.00;;;3.20;;
67804;SDS011;54603;45.638;11.714;2023-05-08T19:56:18;6.10;;;3.60;;
67804;SDS011;54603;45.638;11.714;2023-05-08T19:58:44;4.40;;;3.10;;
67804;SDS011;54603;45.638;11.714;2023-05-08T20:01:10;5.70;;;3.40;;
67804;SDS011;54603;45.638;11.714;2023-05-08T20:03:36;3.50;;;2.90;;
67804;SDS011;54603;45.638;11.714;2023-05-08T20:06:01;4.80;;;3.40;;
67804;SDS011;54603;45.638;11.714;2023-05-08T20:08:32;4.10;;;2.90;;
67804;SDS011;54603;45.638;11.714;2023-05-08T20:11:29;4.70;;;3.40;;
67804;SDS011;54603;45.638;11.714;2023-05-08T20:14:15;6.60;;;3.00;;
67804;SDS011;54603;45.638;11.714;2023-05-08T20:17:03;6.30;;;3.30;;
67804;SDS011;54603;45.638;11.714;2023-05-08T20:19:30;3.30;;;3.00;;
67804;SDS011;54603;45.638;11.714;2023-05-08T20:21:56;5.20;;;3.10;;
67804;SDS011;54603;45.638;11.714;2023-05-08T20:24:34;5.30;;;2.70;;
67804;SDS011;54603;45.638;11.714;2023-05-08T20:27:00;4.40;;;3.10;;
67804;SDS011;54603;45.638;11.714;2023-05-08T20:29:25;4.70;;;3.00;;
67804;SDS011;54603;45.638;11.714;2023-05-08T20:31:53;3.60;;;2.90;;
67804;SDS011;54603;45.638;11.714;2023-05-08T20:34:21;3.80;;;2.80;;
67804;SDS011;54603;45.638;11.714;2023-05-08T20:36:47;3.20;;;2.70;;
67804;SDS011;54603;45.638;11.714;2023-05-08T20:39:13;3.50;;;2.90;;
67804;SDS011;54603;45.638;11.714;2023-05-08T20:41:39;2.60;;;2.40;;
67804;SDS011;54603;45.638;11.714;2023-05-08T20:44:06;3.50;;;2.80;;
67804;SDS011;54603;45.638;11.714;2023-05-08T20:46:32;3.60;;;2.50;;
67804;SDS011;54603;45.638;11.714;2023-05-08T20:48:59;4.40;;;2.60;;
67804;SDS011;54603;45.638;11.714;2023-05-08T20:51:29;7.50;;;3.10;;
67804;SDS011;54603;45.638;11.714;2023-05-08T20:53:56;10.70;;;2.90;;
67804;SDS011;54603;45.638;11.714;2023-05-08T20:56:22;2.80;;;2.60;;
67804;SDS011;54603;45.638;11.714;2023-05-08T20:58:48;3.50;;;2.50;;
67804;SDS011;54603;45.638;11.714;2023-05-08T21:01:13;3.00;;;2.70;;
67804;SDS011;54603;45.638;11.714;2023-05-08T21:03:40;3.10;;;2.50;;
67804;SDS011;54603;45.638;11.714;2023-05-08T21:06:05;5.40;;;2.70;;
67804;SDS011;54603;45.638;11.714;2023-05-08T21:08:32;8.10;;;2.60;;
67804;SDS011;54603;45.638;11.714;2023-05-08T21:11:00;3.90;;;2.60;;
67804;SDS011;54603;45.638;11.714;2023-05-08T21:13:26;6.00;;;2.60;;
67804;SDS011;54603;45.638;11.714;2023-05-08T21:15:56;5.00;;;2.80;;
67804;SDS011;54603;45.638;11.714;2023-05-08T21:18:21;5.10;;;2.60;;
67804;SDS011;54603;45.638;11.714;2023-05-08T21:20:47;5.20;;;2.60;;
67804;SDS011;54603;45.638;11.714;2023-05-08T21:23:16;3.10;;;2.70;;
67804;SDS011;54603;45.638;11.714;2023-05-08T21:25:46;5.10;;;3.00;;
67804;SDS011;54603;45.638;11.714;2023-05-08T21:28:13;4.20;;;2.80;;
67804;SDS011;54603;45.638;11.714;2023-05-08T21:30:40;4.60;;;2.70;;
67804;SDS011;54603;45.638;11.714;2023-05-08T21:33:07;4.30;;;2.80;;
67804;SDS011;54603;45.638;11.714;2023-05-08T21:35:34;3.90;;;2.70;;
67804;SDS011;54603;45.638;11.714;2023-05-08T21:38:00;21.10;;;3.20;;
67804;SDS011;54603;45.638;11.714;2023-05-08T21:40:26;3.10;;;2.80;;
67804;SDS011;54603;45.638;11.714;2023-05-08T21:42:52;4.50;;;2.60;;
67804;SDS011;54603;45.638;11.714;2023-05-08T21:45:17;4.90;;;2.40;;
67804;SDS011;54603;45.638;11.714;2023-05-08T21:47:43;3.20;;;2.60;;
67804;SDS011;54603;45.638;11.714;2023-05-08T21:50:08;5.80;;;2.40;;
67804;SDS011;54603;45.638;11.714;2023-05-08T21:52:34;4.00;;;2.70;;
67804;SDS011;54603;45.638;11.714;2023-05-08T21:55:00;3.20;;;2.50;;
67804;SDS011;54603;45.638;11.714;2023-05-08T21:57:26;5.40;;;3.40;;
67804;SDS011;54603;45.638;11.714;2023-05-08T21:59:51;3.20;;;2.40;;
67804;SDS011;54603;45.638;11.714;2023-05-08T22:02:18;4.70;;;2.40;;
67804;SDS011;54603;45.638;11.714;2023-05-08T22:04:46;4.90;;;2.70;;
67804;SDS011;54603;45.638;11.714;2023-05-08T22:07:11;6.10;;;2.50;;
67804;SDS011;54603;45.638;11.714;2023-05-08T22:09:37;3.80;;;2.70;;
67804;SDS011;54603;45.638;11.714;2023-05-08T22:12:03;3.40;;;2.70;;
67804;SDS011;54603;45.638;11.714;2023-05-08T22:14:30;3.40;;;2.60;;
67804;SDS011;54603;45.638;11.714;2023-05-08T22:16:56;3.00;;;2.50;;
67804;SDS011;54603;45.638;11.714;2023-05-08T22:19:21;4.20;;;2.70;;
67804;SDS011;54603;45.638;11.714;2023-05-08T22:21:47;3.60;;;2.60;;
67804;SDS011;54603;45.638;11.714;2023-05-08T22:24:12;4.10;;;2.30;;
67804;SDS011;54603;45.638;11.714;2023-05-08T22:26:39;3.70;;;2.70;;
67804;SDS011;54603;45.638;11.714;2023-05-08T22:29:04;5.10;;;2.70;;
67804;SDS011;54603;45.638;11.714;2023-05-08T22:31:30;4.50;;;2.90;;
67804;SDS011;54603;45.638;11.714;2023-05-08T22:33:56;4.70;;;3.00;;
67804;SDS011;54603;45.638;11.714;2023-05-08T22:36:22;3.30;;;2.40;;
67804;SDS011;54603;45.638;11.714;2023-05-08T22:38:48;4.20;;;2.60;;
67804;SDS011;54603;45.638;11.714;2023-05-08T22:41:13;3.30;;;2.80;;
67804;SDS011;54603;45.638;11.714;2023-05-08T22:43:39;3.30;;;2.70;;
67804;SDS011;54603;45.638;11.714;2023-05-08T22:46:05;5.80;;;2.80;;
67804;SDS011;54603;45.638;11.714;2023-05-08T22:48:30;6.20;;;2.50;;
67804;SDS011;54603;45.638;11.714;2023-05-08T22:50:56;2.90;;;2.60;;
67804;SDS011;54603;45.638;11.714;2023-05-08T22:53:21;3.90;;;2.80;;
67804;SDS011;54603;45.638;11.714;2023-05-08T22:55:47;4.20;;;3.10;;
67804;SDS011;54603;45.638;11.714;2023-05-08T22:58:13;5.10;;;2.80;;
67804;SDS011;54603;45.638;11.714;2023-05-08T23:00:39;3.10;;;2.40;;
67804;SDS011;54603;45.638;11.714;2023-05-08T23:03:05;4.80;;;2.50;;
67804;SDS011;54603;45.638;11.714;2023-05-08T23:05:30;5.10;;;2.70;;
67804;SDS011;54603;45.638;11.714;2023-05-08T23:07:56;3.30;;;2.50;;
67804;SDS011;54603;45.638;11.714;2023-05-08T23:10:22;2.90;;;2.60;;
67804;SDS011;54603;45.638;11.714;2023-05-08T23:12:47;6.70;;;2.70;;
67804;SDS011;54603;45.638;11.714;2023-05-08T23:15:13;3.60;;;2.60;;
67804;SDS011;54603;45.638;11.714;2023-05-08T23:17:38;3.70;;;2.90;;
67804;SDS011;54603;45.638;11.714;2023-05-08T23:20:04;3.90;;;2.90;;
67804;SDS011;54603;45.638;11.714;2023-05-08T23:22:30;3.30;;;3.00;;
67804;SDS011;54603;45.638;11.714;2023-05-08T23:24:56;4.00;;;2.60;;
67804;SDS011;54603;45.638;11.714;2023-05-08T23:27:22;4.90;;;2.90;;
67804;SDS011;54603;45.638;11.714;2023-05-08T23:29:47;3.50;;;2.60;;
67804;SDS011;54603;45.638;11.714;2023-05-08T23:32:13;3.30;;;2.50;;
67804;SDS011;54603;45.638;11.714;2023-05-08T23:34:40;4.40;;;3.00;;
67804;SDS011;54603;45.638;11.714;2023-05-08T23:37:07;4.30;;;2.60;;
67804;SDS011;54603;45.638;11.714;2023-05-08T23:39:32;2.80;;;2.50;;
67804;SDS011;54603;45.638;11.714;2023-05-08T23:42:02;4.00;;;2.70;;
67804;SDS011;54603;45.638;11.714;2023-05-08T23:44:28;5.80;;;2.60;;
67804;SDS011;54603;45.638;11.714;2023-05-08T23:46:53;3.10;;;2.30;;
67804;SDS011;54603;45.638;11.714;2023-05-08T23:49:20;3.30;;;3.00;;
67804;SDS011;54603;45.638;11.714;2023-05-08T23:51:46;4.90;;;2.70;;
67804;SDS011;54603;45.638;11.714;2023-05-08T23:54:11;5.40;;;3.50;;
67804;SDS011;54603;45.638;11.714;2023-05-08T23:56:38;4.10;;;3.70;;
67804;SDS011;54603;45.638;11.714;2023-05-08T23:59:03;4.20;;;3.20;;
